Time;durP1;ratioP1;P1;durP2;ratioP2;P2;SDS_P1;SDS_P2;PMS_P1;PMS_P2;Temp;Humidity;BMP_temperature;BMP_pressure;BME280_temperature;BME280_humidity;BME280_pressure;Samples;Min_cycle;Max_cycle;Signal;HPM_P1;HPM_P2
2022/12/29 00:02:21;;;;;;;20.60;4.70;;;;;;;;;;5012759;28;20030;-38
2022/12/29 00:04:50;;;;;;;17.83;4.30;;;;;;;;;;5012747;28;20046;-38
2022/12/29 00:07:18;;;;;;;16.83;4.40;;;;;;;;;;5012029;28;20033;-39
2022/12/29 00:09:45;;;;;;;17.70;4.70;;;;;;;;;;5012256;28;20489;-37
2022/12/29 00:12:12;;;;;;;19.75;4.72;;;;;;;;;;5012548;28;20481;-39
2022/12/29 00:17:23;;;;;;;18.20;4.90;;;;;;;;;;5012646;28;20036;-39
2022/12/29 00:36:26;;;;;;;18.35;5.15;;;;;;;;;;5012378;28;20088;-39
2022/12/29 00:44:34;;;;;;;24.70;5.28;;;;;;;;;;5012366;28;20084;-39
2022/12/29 00:47:04;;;;;;;25.27;5.28;;;;;;;;;;5012065;28;20022;-39
2022/12/29 00:49:31;;;;;;;34.65;6.18;;;;;;;;;;5011951;28;20054;-39
2022/12/29 00:52:00;;;;;;;24.52;5.97;;;;;;;;;;5030126;28;20124;-39
2022/12/29 00:54:27;;;;;;;28.85;5.63;;;;;;;;;;5028276;28;20400;-39
2022/12/29 00:56:54;;;;;;;29.83;6.35;;;;;;;;;;5031739;28;20025;-39
2022/12/29 00:59:23;;;;;;;37.25;6.20;;;;;;;;;;5014069;28;20365;-39
2022/12/29 01:01:51;;;;;;;30.20;5.80;;;;;;;;;;5031470;28;20040;-37
2022/12/29 01:04:18;;;;;;;32.85;5.97;;;;;;;;;;5031566;28;20044;-39
2022/12/29 01:06:45;;;;;;;29.48;6.35;;;;;;;;;;5031684;28;20037;-39
2022/12/29 01:11:57;;;;;;;36.67;6.75;;;;;;;;;;5031929;28;20400;-39
2022/12/29 01:14:24;;;;;;;36.55;7.20;;;;;;;;;;5031688;28;20083;-39
2022/12/29 01:16:52;;;;;;;37.35;7.38;;;;;;;;;;5030897;28;20092;-39
2022/12/29 01:19:19;;;;;;;43.13;7.43;;;;;;;;;;5032591;28;20116;-39
2022/12/29 01:21:47;;;;;;;42.65;7.55;;;;;;;;;;5035275;28;20028;-39
2022/12/29 01:24:15;;;;;;;38.80;7.85;;;;;;;;;;5035320;28;20479;-39
2022/12/29 01:26:42;;;;;;;42.97;7.95;;;;;;;;;;5035190;28;20484;-39
2022/12/29 01:29:09;;;;;;;44.72;7.93;;;;;;;;;;5035075;28;20040;-39
2022/12/29 01:31:36;;;;;;;44.38;9.10;;;;;;;;;;5035096;28;20035;-39
2022/12/29 01:34:03;;;;;;;41.78;7.63;;;;;;;;;;5035147;28;20037;-39
2022/12/29 01:36:30;;;;;;;33.70;8.00;;;;;;;;;;5035085;28;20040;-39
2022/12/29 01:38:57;;;;;;;39.95;7.30;;;;;;;;;;5035023;28;20080;-39
2022/12/29 01:41:24;;;;;;;49.65;8.55;;;;;;;;;;5034850;28;20072;-39
2022/12/29 01:43:52;;;;;;;44.67;8.15;;;;;;;;;;5034906;28;20071;-39
2022/12/29 01:46:26;;;;;;;37.20;7.95;;;;;;;;;;5034957;28;20032;-39
2022/12/29 01:48:54;;;;;;;38.92;7.47;;;;;;;;;;5034823;28;20033;-39
2022/12/29 01:51:23;;;;;;;35.22;8.15;;;;;;;;;;5034751;28;20040;-39
2022/12/29 01:53:51;;;;;;;35.25;7.50;;;;;;;;;;5034916;28;20411;-39
2022/12/29 01:56:21;;;;;;;41.10;8.57;;;;;;;;;;5034790;28;20032;-39
2022/12/29 01:58:49;;;;;;;39.80;8.57;;;;;;;;;;5034751;28;20030;-39
2022/12/29 02:01:20;;;;;;;36.22;8.48;;;;;;;;;;5034570;28;20048;-39
2022/12/29 02:03:47;;;;;;;47.47;9.13;;;;;;;;;;5034637;28;20029;-39
2022/12/29 02:06:15;;;;;;;40.05;8.65;;;;;;;;;;5034462;28;20041;-39
2022/12/29 02:08:42;;;;;;;41.63;8.48;;;;;;;;;;5034520;28;20041;-39
2022/12/29 02:11:09;;;;;;;43.53;9.52;;;;;;;;;;5034440;28;20541;-39
2022/12/29 02:13:36;;;;;;;48.03;9.82;;;;;;;;;;5034481;28;20030;-40
2022/12/29 02:16:09;;;;;;;43.15;9.25;;;;;;;;;;5034404;28;20176;-40
2022/12/29 02:18:54;;;;;;;48.30;10.05;;;;;;;;;;5034467;28;20038;-39
2022/12/29 02:21:56;;;;;;;52.35;10.68;;;;;;;;;;5034211;28;20056;-39
2022/12/29 02:24:29;;;;;;;42.13;9.95;;;;;;;;;;4954064;29;20031;-39
2022/12/29 02:27:05;;;;;;;53.47;10.07;;;;;;;;;;5022010;28;20107;-39
2022/12/29 02:29:35;;;;;;;51.72;10.98;;;;;;;;;;5034139;28;20033;-39
2022/12/29 02:32:20;;;;;;;48.67;10.27;;;;;;;;;;5033186;28;20079;-39
2022/12/29 02:34:57;;;;;;;49.05;10.52;;;;;;;;;;5034132;28;20018;-39
2022/12/29 02:37:32;;;;;;;45.97;10.50;;;;;;;;;;5033439;28;20499;-40
2022/12/29 02:40:03;;;;;;;51.75;10.07;;;;;;;;;;5026206;28;20051;-39
2022/12/29 02:42:32;;;;;;;139.95;23.48;;;;;;;;;;5023169;28;20129;-38
2022/12/29 02:45:08;;;;;;;201.32;32.53;;;;;;;;;;5022915;28;20021;-37
2022/12/29 02:47:38;;;;;;;220.30;35.25;;;;;;;;;;5017466;28;20084;-38
2022/12/29 02:50:05;;;;;;;203.80;33.45;;;;;;;;;;5024155;28;20029;-38
2022/12/29 02:52:46;;;;;;;205.75;33.15;;;;;;;;;;5033664;28;20025;-37
2022/12/29 02:55:13;;;;;;;230.90;38.25;;;;;;;;;;5015601;28;20392;-37
2022/12/29 02:57:40;;;;;;;224.00;34.75;;;;;;;;;;5031084;28;20060;-37
2022/12/29 03:00:09;;;;;;;242.65;37.88;;;;;;;;;;5030723;28;20407;-38
2022/12/29 03:02:54;;;;;;;281.77;44.63;;;;;;;;;;5030448;28;20029;-38
2022/12/29 03:05:40;;;;;;;229.90;36.88;;;;;;;;;;5030535;28;20071;-37
2022/12/29 03:08:18;;;;;;;262.58;39.10;;;;;;;;;;5022076;28;20431;-38
2022/12/29 03:10:51;;;;;;;256.27;39.10;;;;;;;;;;5020791;28;20106;-37
2022/12/29 03:16:35;;;;;;;258.15;38.88;;;;;;;;;;5023019;28;20045;-38
2022/12/29 03:19:08;;;;;;;239.70;38.55;;;;;;;;;;5010347;28;20037;-37
2022/12/29 03:24:21;;;;;;;245.35;40.42;;;;;;;;;;5013309;28;19956;-37
2022/12/29 03:26:49;;;;;;;272.20;40.42;;;;;;;;;;5013302;28;20026;-37
2022/12/29 03:29:17;;;;;;;310.40;43.33;;;;;;;;;;5013342;28;20060;-37
2022/12/29 03:31:45;;;;;;;294.40;44.78;;;;;;;;;;5013130;28;20101;-37
2022/12/29 03:34:13;;;;;;;312.30;45.97;;;;;;;;;;4995448;28;20040;-37
2022/12/29 03:36:50;;;;;;;290.83;46.63;;;;;;;;;;5013262;28;20396;-37
2022/12/29 03:39:18;;;;;;;324.85;45.90;;;;;;;;;;5012895;28;20480;-37
2022/12/29 03:41:46;;;;;;;282.50;42.60;;;;;;;;;;5012723;28;20088;-38
2022/12/29 03:44:14;;;;;;;285.98;42.35;;;;;;;;;;5013112;28;20025;-37
2022/12/29 03:46:40;;;;;;;283.88;40.55;;;;;;;;;;5013044;28;20029;-37
2022/12/29 03:49:07;;;;;;;245.45;36.42;;;;;;;;;;5013034;28;20045;-37
2022/12/29 03:51:34;;;;;;;245.32;35.03;;;;;;;;;;5012881;28;20117;-38
2022/12/29 03:54:01;;;;;;;238.82;36.28;;;;;;;;;;5012985;28;20389;-37
2022/12/29 03:56:28;;;;;;;260.35;36.30;;;;;;;;;;5012884;28;20049;-37
2022/12/29 03:58:55;;;;;;;273.33;37.17;;;;;;;;;;5021510;28;20120;-37
2022/12/29 04:01:22;;;;;;;252.00;38.35;;;;;;;;;;5032563;28;20116;-37
2022/12/29 04:03:49;;;;;;;245.63;35.95;;;;;;;;;;5032398;28;20116;-37
2022/12/29 04:06:16;;;;;;;234.32;35.08;;;;;;;;;;5032482;28;20049;-37
2022/12/29 04:08:43;;;;;;;226.63;33.38;;;;;;;;;;5032371;28;20068;-37
2022/12/29 04:11:10;;;;;;;218.15;35.10;;;;;;;;;;5032204;28;20040;-37
2022/12/29 04:13:40;;;;;;;277.55;38.28;;;;;;;;;;5032398;28;20021;-37
2022/12/29 04:16:08;;;;;;;244.98;36.45;;;;;;;;;;5032391;28;20037;-37
2022/12/29 04:18:35;;;;;;;265.35;35.60;;;;;;;;;;5032389;28;20063;-37
2022/12/29 04:21:05;;;;;;;237.23;34.65;;;;;;;;;;5032247;28;20040;-37
2022/12/29 04:23:34;;;;;;;197.20;31.48;;;;;;;;;;5032148;28;20483;-37
2022/12/29 04:26:01;;;;;;;202.20;30.95;;;;;;;;;;5032083;28;20388;-37
2022/12/29 04:28:28;;;;;;;190.07;30.83;;;;;;;;;;5032201;28;20036;-37
2022/12/29 04:30:55;;;;;;;206.02;29.88;;;;;;;;;;5014595;28;20041;-37
2022/12/29 04:33:22;;;;;;;184.15;29.98;;;;;;;;;;5032284;28;20026;-37
2022/12/29 04:35:50;;;;;;;186.10;29.17;;;;;;;;;;5031883;28;20017;-38
2022/12/29 04:38:17;;;;;;;196.52;28.75;;;;;;;;;;5032269;28;20057;-37
2022/12/29 04:40:44;;;;;;;191.73;30.50;;;;;;;;;;5031862;28;20045;-38
2022/12/29 04:43:11;;;;;;;190.52;29.92;;;;;;;;;;5032040;28;20057;-37
2022/12/29 04:45:38;;;;;;;204.10;28.90;;;;;;;;;;5032108;28;20017;-37
2022/12/29 04:48:05;;;;;;;184.77;29.30;;;;;;;;;;5032100;28;20487;-37
2022/12/29 04:50:32;;;;;;;200.13;30.00;;;;;;;;;;5032042;28;20537;-37
2022/12/29 04:52:59;;;;;;;206.50;32.00;;;;;;;;;;5032041;28;20034;-37
2022/12/29 04:55:26;;;;;;;241.55;36.58;;;;;;;;;;5034959;28;20063;-37
2022/12/29 04:57:53;;;;;;;291.70;38.38;;;;;;;;;;5035887;28;20101;-37
2022/12/29 05:00:20;;;;;;;244.70;34.85;;;;;;;;;;5035733;28;20022;-37
2022/12/29 05:02:47;;;;;;;242.15;33.67;;;;;;;;;;5018016;28;20430;-37
2022/12/29 05:05:14;;;;;;;240.93;33.58;;;;;;;;;;5036021;28;20029;-37
2022/12/29 05:07:41;;;;;;;215.60;31.98;;;;;;;;;;5035603;28;20399;-37
2022/12/29 05:10:09;;;;;;;221.77;30.95;;;;;;;;;;5035559;28;20022;-37
2022/12/29 05:12:36;;;;;;;196.02;29.52;;;;;;;;;;5035427;28;20034;-37
2022/12/29 05:15:04;;;;;;;213.43;32.03;;;;;;;;;;5035486;28;20401;-37
2022/12/29 05:17:31;;;;;;;241.55;32.33;;;;;;;;;;5035615;28;20017;-37
2022/12/29 05:19:58;;;;;;;179.25;26.65;;;;;;;;;;5035421;28;20064;-37
2022/12/29 05:22:26;;;;;;;163.98;25.58;;;;;;;;;;5035570;28;20029;-37
2022/12/29 05:24:53;;;;;;;134.88;24.20;;;;;;;;;;5035462;28;20033;-37
2022/12/29 05:27:20;;;;;;;146.93;24.13;;;;;;;;;;5035369;28;20037;-37
2022/12/29 05:29:46;;;;;;;146.45;23.75;;;;;;;;;;5035318;28;20025;-37
2022/12/29 05:32:13;;;;;;;151.98;23.48;;;;;;;;;;5035093;28;20033;-37
2022/12/29 05:34:40;;;;;;;139.07;20.70;;;;;;;;;;5035321;28;20026;-37
2022/12/29 05:37:07;;;;;;;132.55;22.70;;;;;;;;;;5035241;28;20091;-37
2022/12/29 05:39:34;;;;;;;133.13;21.17;;;;;;;;;;5034959;28;20459;-37
2022/12/29 05:42:01;;;;;;;138.02;22.30;;;;;;;;;;5035112;28;20053;-37
2022/12/29 05:44:28;;;;;;;119.38;21.73;;;;;;;;;;5034966;28;20018;-37
2022/12/29 05:46:55;;;;;;;134.52;21.25;;;;;;;;;;5035011;28;20033;-37
2022/12/29 05:49:22;;;;;;;132.77;21.35;;;;;;;;;;5035025;28;20045;-37
2022/12/29 05:51:49;;;;;;;126.25;19.20;;;;;;;;;;5034950;28;20391;-37
2022/12/29 05:54:16;;;;;;;207.93;26.63;;;;;;;;;;5034995;28;20450;-37
2022/12/29 05:56:43;;;;;;;182.93;24.80;;;;;;;;;;5034886;28;20087;-38
2022/12/29 05:59:10;;;;;;;168.15;25.10;;;;;;;;;;5034838;28;20521;-37
2022/12/29 06:01:37;;;;;;;148.82;21.52;;;;;;;;;;5035013;28;20100;-37
2022/12/29 06:04:04;;;;;;;147.60;21.05;;;;;;;;;;5032197;28;20030;-37
2022/12/29 06:06:31;;;;;;;124.20;19.63;;;;;;;;;;5034132;28;20100;-37
2022/12/29 06:08:58;;;;;;;136.82;20.20;;;;;;;;;;5034234;28;20034;-37
2022/12/29 06:11:25;;;;;;;116.53;19.55;;;;;;;;;;5034155;28;20036;-37
2022/12/29 06:13:52;;;;;;;151.27;22.70;;;;;;;;;;5034043;28;20075;-37
2022/12/29 06:16:19;;;;;;;173.75;22.80;;;;;;;;;;5034157;28;20091;-37
2022/12/29 06:18:46;;;;;;;160.93;24.45;;;;;;;;;;5034115;28;20033;-37
2022/12/29 06:21:13;;;;;;;151.73;22.58;;;;;;;;;;5033964;28;20545;-37
2022/12/29 06:23:40;;;;;;;129.02;20.15;;;;;;;;;;5033794;28;20040;-36
2022/12/29 06:26:07;;;;;;;140.55;20.50;;;;;;;;;;5033931;28;20100;-37
2022/12/29 06:28:34;;;;;;;145.23;21.63;;;;;;;;;;5033765;28;20029;-37
2022/12/29 06:31:02;;;;;;;140.40;21.25;;;;;;;;;;5033729;28;20045;-37
2022/12/29 06:33:30;;;;;;;136.95;19.88;;;;;;;;;;5015849;28;20033;-37
2022/12/29 06:35:57;;;;;;;127.50;19.13;;;;;;;;;;5033732;28;20025;-37
2022/12/29 06:38:24;;;;;;;135.63;19.80;;;;;;;;;;5033383;28;20040;-37
2022/12/29 06:40:50;;;;;;;125.80;19.98;;;;;;;;;;5033373;28;20053;-37
2022/12/29 06:43:17;;;;;;;105.57;17.52;;;;;;;;;;5033736;28;20026;-37
2022/12/29 06:45:44;;;;;;;106.85;17.08;;;;;;;;;;5033503;28;20063;-37
2022/12/29 06:48:11;;;;;;;132.18;17.98;;;;;;;;;;5033403;28;20403;-37
2022/12/29 06:50:38;;;;;;;104.85;17.75;;;;;;;;;;5033397;28;20392;-37
2022/12/29 06:53:05;;;;;;;109.18;18.58;;;;;;;;;;5033502;28;20032;-37
2022/12/29 06:55:32;;;;;;;91.70;16.17;;;;;;;;;;5033411;28;20017;-37
2022/12/29 06:58:01;;;;;;;97.82;16.13;;;;;;;;;;5033396;28;20029;-37
2022/12/29 07:00:27;;;;;;;114.38;16.85;;;;;;;;;;5033136;28;20080;-37
2022/12/29 07:02:57;;;;;;;100.50;15.77;;;;;;;;;;5015189;28;20480;-38
2022/12/29 07:05:27;;;;;;;105.30;17.50;;;;;;;;;;5033009;28;20088;-37
2022/12/29 07:07:54;;;;;;;87.72;15.57;;;;;;;;;;5032877;28;20041;-37
2022/12/29 07:10:22;;;;;;;96.75;16.08;;;;;;;;;;5033046;28;20495;-37
2022/12/29 07:12:49;;;;;;;77.05;14.27;;;;;;;;;;5033022;28;20029;-37
2022/12/29 07:15:16;;;;;;;71.55;13.20;;;;;;;;;;5033011;28;20030;-37
2022/12/29 07:17:42;;;;;;;76.13;13.05;;;;;;;;;;5032502;28;20390;-37
2022/12/29 07:20:10;;;;;;;68.38;13.43;;;;;;;;;;5032896;28;20061;-37
2022/12/29 07:22:43;;;;;;;68.93;13.35;;;;;;;;;;5032937;28;20407;-36
2022/12/29 07:25:10;;;;;;;73.25;12.63;;;;;;;;;;5032786;28;20029;-36
2022/12/29 07:27:37;;;;;;;73.28;13.20;;;;;;;;;;5032506;28;20391;-36
2022/12/29 07:30:04;;;;;;;79.22;14.25;;;;;;;;;;5032524;28;20522;-36
2022/12/29 07:32:35;;;;;;;79.97;13.18;;;;;;;;;;5032707;28;20045;-36
2022/12/29 07:35:02;;;;;;;133.50;17.67;;;;;;;;;;5032670;28;20033;-36
2022/12/29 07:37:29;;;;;;;107.40;15.68;;;;;;;;;;5032460;28;20034;-36
2022/12/29 07:39:56;;;;;;;107.07;15.57;;;;;;;;;;5032234;28;20133;-36
2022/12/29 07:42:23;;;;;;;107.55;16.45;;;;;;;;;;5032457;28;20087;-35
2022/12/29 07:44:49;;;;;;;100.72;13.85;;;;;;;;;;5032457;28;20040;-36
2022/12/29 07:47:17;;;;;;;84.40;13.00;;;;;;;;;;5032738;28;20091;-36
2022/12/29 07:49:43;;;;;;;67.32;11.13;;;;;;;;;;5032107;28;20091;-36
2022/12/29 07:52:10;;;;;;;55.13;9.90;;;;;;;;;;5032319;28;20033;-36
2022/12/29 07:54:37;;;;;;;50.67;7.47;;;;;;;;;;5032386;28;20029;-36
2022/12/29 07:57:05;;;;;;;43.30;6.65;;;;;;;;;;5032061;28;20034;-36
2022/12/29 07:59:33;;;;;;;31.92;6.13;;;;;;;;;;5032085;28;20033;-36
2022/12/29 08:02:00;;;;;;;42.63;6.10;;;;;;;;;;5032187;28;20033;-36
2022/12/29 08:04:27;;;;;;;33.85;6.40;;;;;;;;;;5032172;28;20021;-36
2022/12/29 08:06:54;;;;;;;32.13;4.93;;;;;;;;;;5032285;28;20479;-37
2022/12/29 08:09:21;;;;;;;31.70;5.05;;;;;;;;;;5031873;28;20049;-36
2022/12/29 08:11:48;;;;;;;29.10;5.50;;;;;;;;;;5032010;28;20044;-36
2022/12/29 08:14:15;;;;;;;31.95;5.80;;;;;;;;;;5032035;28;20029;-36
2022/12/29 08:16:42;;;;;;;34.45;6.50;;;;;;;;;;5032035;28;20025;-36
2022/12/29 08:19:11;;;;;;;34.58;5.43;;;;;;;;;;5031948;28;20107;-36
2022/12/29 08:21:38;;;;;;;39.08;6.63;;;;;;;;;;5031791;28;20083;-36
2022/12/29 08:24:05;;;;;;;32.35;6.82;;;;;;;;;;5031818;28;20036;-35
2022/12/29 08:26:32;;;;;;;52.42;6.75;;;;;;;;;;5031905;28;20782;-36
2022/12/29 08:28:59;;;;;;;48.67;7.35;;;;;;;;;;5014594;28;20045;-36
2022/12/29 08:31:26;;;;;;;39.50;6.60;;;;;;;;;;5036077;28;20151;-36
2022/12/29 08:33:53;;;;;;;41.72;6.78;;;;;;;;;;5036043;28;20033;-36
2022/12/29 08:36:20;;;;;;;40.08;6.40;;;;;;;;;;5036010;28;20040;-36
2022/12/29 08:38:47;;;;;;;34.40;6.35;;;;;;;;;;5035857;28;20033;-36
2022/12/29 08:41:14;;;;;;;44.55;6.65;;;;;;;;;;5035467;28;20088;-36
2022/12/29 08:43:41;;;;;;;37.22;5.88;;;;;;;;;;5035744;28;20084;-36
2022/12/29 08:46:08;;;;;;;43.55;6.85;;;;;;;;;;5035871;28;20763;-37
2022/12/29 08:48:35;;;;;;;34.67;5.78;;;;;;;;;;5035665;28;20087;-37
2022/12/29 08:51:01;;;;;;;48.45;6.32;;;;;;;;;;5035483;28;20025;-37
2022/12/29 08:53:28;;;;;;;46.60;7.15;;;;;;;;;;5035688;28;20163;-37
2022/12/29 08:55:57;;;;;;;60.70;7.85;;;;;;;;;;5035575;28;20108;-35
2022/12/29 08:58:24;;;;;;;55.40;8.20;;;;;;;;;;5035588;28;20048;-36
2022/12/29 09:00:53;;;;;;;58.58;7.85;;;;;;;;;;5035478;28;20033;-36
2022/12/29 09:03:20;;;;;;;54.72;8.57;;;;;;;;;;5035429;28;20443;-36
2022/12/29 09:05:50;;;;;;;57.85;9.50;;;;;;;;;;5035432;28;20025;-36
2022/12/29 09:08:17;;;;;;;67.38;10.10;;;;;;;;;;5035326;28;20042;-36
2022/12/29 09:10:45;;;;;;;80.32;11.57;;;;;;;;;;5035267;28;20033;-37
2022/12/29 09:13:13;;;;;;;91.32;11.65;;;;;;;;;;5035319;28;20100;-36
2022/12/29 09:15:39;;;;;;;71.18;9.98;;;;;;;;;;5035146;28;20159;-36
2022/12/29 09:18:07;;;;;;;73.25;10.73;;;;;;;;;;5035280;28;20029;-36
2022/12/29 09:20:34;;;;;;;79.68;11.88;;;;;;;;;;5035048;28;20059;-36
2022/12/29 09:23:01;;;;;;;77.30;11.25;;;;;;;;;;5035060;28;20534;-37
2022/12/29 09:25:28;;;;;;;79.35;10.88;;;;;;;;;;5034926;28;20117;-37
2022/12/29 09:27:55;;;;;;;79.95;9.25;;;;;;;;;;5034860;28;20044;-37
2022/12/29 09:30:23;;;;;;;85.05;11.23;;;;;;;;;;5034913;28;20022;-37
2022/12/29 09:32:50;;;;;;;64.30;9.90;;;;;;;;;;5035002;28;20403;-37
2022/12/29 09:35:17;;;;;;;87.45;11.43;;;;;;;;;;5034921;28;20025;-37
2022/12/29 09:37:44;;;;;;;73.13;10.90;;;;;;;;;;5034821;28;20442;-37
2022/12/29 09:40:23;;;;;;;81.43;10.55;;;;;;;;;;5034020;28;20041;-37
2022/12/29 09:43:08;;;;;;;79.00;11.60;;;;;;;;;;5034785;28;20790;-37
2022/12/29 09:45:45;;;;;;;109.13;14.85;;;;;;;;;;5034681;28;20033;-37
2022/12/29 09:48:20;;;;;;;91.80;14.68;;;;;;;;;;5034561;28;20056;-36
2022/12/29 09:50:50;;;;;;;112.45;15.30;;;;;;;;;;5034569;28;20487;-37
2022/12/29 09:53:20;;;;;;;135.68;15.10;;;;;;;;;;5034435;28;20037;-37
2022/12/29 09:55:51;;;;;;;120.25;15.82;;;;;;;;;;5034558;28;20479;-36
2022/12/29 09:58:22;;;;;;;127.40;16.65;;;;;;;;;;5034405;28;20040;-36
2022/12/29 10:00:49;;;;;;;144.40;18.00;;;;;;;;;;5034359;28;20057;-37
2022/12/29 10:03:17;;;;;;;114.15;16.40;;;;;;;;;;5034483;28;20100;-37
2022/12/29 10:05:48;;;;;;;112.63;16.40;;;;;;;;;;5034314;28;20052;-37
2022/12/29 10:08:15;;;;;;;108.18;17.63;;;;;;;;;;5034239;28;20033;-37
2022/12/29 10:10:46;;;;;;;108.40;17.05;;;;;;;;;;5033679;28;20028;-37
2022/12/29 10:25:56;;;;;;;82.53;15.73;;;;;;;;;;5016692;28;20506;-37
2022/12/29 10:28:24;;;;;;;76.90;14.40;;;;;;;;;;5013683;28;20044;-36
2022/12/29 10:30:52;;;;;;;60.20;13.95;;;;;;;;;;5019140;28;20029;-37
2022/12/29 10:33:25;;;;;;;100.45;17.25;;;;;;;;;;5033206;28;20036;-37
2022/12/29 10:35:52;;;;;;;106.63;16.70;;;;;;;;;;5029658;28;20380;-36
2022/12/29 10:38:29;;;;;;;119.63;19.13;;;;;;;;;;5026876;28;20034;-37
2022/12/29 10:40:56;;;;;;;108.88;18.90;;;;;;;;;;5033186;28;20416;-37
2022/12/29 10:43:29;;;;;;;93.63;17.38;;;;;;;;;;5033310;28;20026;-36
2022/12/29 10:46:02;;;;;;;74.43;15.38;;;;;;;;;;5033449;28;20049;-36
2022/12/29 10:48:31;;;;;;;78.18;15.23;;;;;;;;;;5033382;28;20040;-37
2022/12/29 10:50:59;;;;;;;92.57;16.20;;;;;;;;;;5033370;28;20049;-37
2022/12/29 10:53:39;;;;;;;77.88;15.90;;;;;;;;;;5014660;28;20068;-37
2022/12/29 10:56:11;;;;;;;67.28;14.75;;;;;;;;;;5033307;28;20025;-37
2022/12/29 10:58:38;;;;;;;55.63;13.45;;;;;;;;;;5033323;28;20087;-36
2022/12/29 11:01:07;;;;;;;70.22;15.07;;;;;;;;;;5033331;28;20029;-37
2022/12/29 11:04:06;;;;;;;82.15;15.48;;;;;;;;;;5032490;28;20399;-37
2022/12/29 11:06:33;;;;;;;97.53;15.60;;;;;;;;;;4989500;28;20048;-37
2022/12/29 11:09:11;;;;;;;98.03;15.82;;;;;;;;;;5032809;28;20037;-36
2022/12/29 11:11:38;;;;;;;89.85;15.05;;;;;;;;;;5032931;28;20059;-36
2022/12/29 11:14:12;;;;;;;62.65;13.57;;;;;;;;;;5032871;28;20080;-37
2022/12/29 11:16:41;;;;;;;100.35;16.38;;;;;;;;;;5032510;28;20037;-37
2022/12/29 11:19:21;;;;;;;101.55;16.33;;;;;;;;;;5018872;28;20049;-40
2022/12/29 11:21:48;;;;;;;103.78;16.90;;;;;;;;;;5012962;28;20034;-39
2022/12/29 11:24:29;;;;;;;119.47;15.80;;;;;;;;;;5015913;28;20101;-36
2022/12/29 11:27:16;;;;;;;191.18;22.00;;;;;;;;;;5024450;28;20079;-37
2022/12/29 11:29:43;;;;;;;111.40;15.57;;;;;;;;;;5012373;28;20078;-37
2022/12/29 11:32:18;;;;;;;95.95;13.13;;;;;;;;;;5018104;28;20080;-37
2022/12/29 11:34:45;;;;;;;91.88;12.07;;;;;;;;;;5032341;28;20034;-36
2022/12/29 11:37:14;;;;;;;73.50;11.82;;;;;;;;;;5032555;28;20032;-36
2022/12/29 11:39:53;;;;;;;74.72;10.95;;;;;;;;;;5016934;28;20112;-39
2022/12/29 11:42:22;;;;;;;62.17;9.00;;;;;;;;;;5012158;28;20048;-38
2022/12/29 11:44:50;;;;;;;89.38;10.98;;;;;;;;;;5012647;28;20436;-39
2022/12/29 11:47:23;;;;;;;79.55;11.63;;;;;;;;;;5012659;28;20030;-40
2022/12/29 11:49:49;;;;;;;;;;;;;;;;;;5013016;28;20427;-38
2022/12/29 11:52:28;;;;;;;79.85;11.75;;;;;;;;;;5012540;28;19975;-38
2022/12/29 11:54:56;;;;;;;79.75;9.40;;;;;;;;;;5012506;28;20084;-39
2022/12/29 11:57:24;;;;;;;82.57;8.93;;;;;;;;;;5012625;28;20030;-39
2022/12/29 11:59:54;;;;;;;51.55;7.07;;;;;;;;;;5012511;28;20037;-38
2022/12/29 12:02:24;;;;;;;56.53;6.70;;;;;;;;;;5012319;28;20034;-38
2022/12/29 12:04:53;;;;;;;44.30;6.47;;;;;;;;;;5012242;28;20514;-39
2022/12/29 12:07:36;;;;;;;46.35;5.72;;;;;;;;;;5012373;28;20101;-39
2022/12/29 12:10:06;;;;;;;39.53;5.55;;;;;;;;;;5012230;28;20046;-39
2022/12/29 12:12:38;;;;;;;32.15;4.97;;;;;;;;;;4994685;28;20030;-39
2022/12/29 12:15:06;;;;;;;58.42;7.13;;;;;;;;;;5012197;28;20440;-39
2022/12/29 12:17:47;;;;;;;44.97;6.50;;;;;;;;;;5012269;28;20551;-39
2022/12/29 12:20:21;;;;;;;48.05;5.53;;;;;;;;;;5012307;28;20092;-39
2022/12/29 12:22:54;;;;;;;65.35;7.00;;;;;;;;;;5012151;28;20034;-38
2022/12/29 12:25:31;;;;;;;59.95;7.85;;;;;;;;;;5012057;28;20048;-39
2022/12/29 12:28:01;;;;;;;64.10;7.70;;;;;;;;;;5012002;28;20030;-40
2022/12/29 12:30:30;;;;;;;65.78;7.63;;;;;;;;;;5012188;28;20740;-40
2022/12/29 12:32:56;;;;;;;65.65;8.20;;;;;;;;;;5012107;28;20032;-38
2022/12/29 12:35:24;;;;;;;57.05;7.05;;;;;;;;;;5012126;28;20036;-39
2022/12/29 12:37:50;;;;;;;74.88;8.35;;;;;;;;;;5011814;28;20060;-39
2022/12/29 12:40:17;;;;;;;79.15;8.38;;;;;;;;;;5011927;28;20053;-40
2022/12/29 12:42:44;;;;;;;61.60;7.25;;;;;;;;;;5012135;28;20030;-38
2022/12/29 12:45:26;;;;;;;59.40;7.43;;;;;;;;;;5011963;28;20083;-38
2022/12/29 12:48:13;;;;;;;48.33;6.43;;;;;;;;;;5022650;28;20021;-39
2022/12/29 12:50:49;;;;;;;62.42;7.47;;;;;;;;;;5014208;28;20048;-39
2022/12/29 12:53:28;;;;;;;76.88;8.30;;;;;;;;;;5011854;28;20480;-38
2022/12/29 12:55:55;;;;;;;109.57;11.65;;;;;;;;;;5011970;28;20048;-39
2022/12/29 12:58:31;;;;;;;89.85;10.25;;;;;;;;;;5011941;28;20092;-39
2022/12/29 13:01:01;;;;;;;58.72;8.13;;;;;;;;;;5029381;28;20414;-39
2022/12/29 13:03:38;;;;;;;53.85;7.70;;;;;;;;;;5031511;28;20021;-39
2022/12/29 13:06:37;;;;;;;61.53;7.20;;;;;;;;;;5013772;28;20361;-39
2022/12/29 13:09:11;;;;;;;47.42;6.07;;;;;;;;;;4988216;28;20069;-39
2022/12/29 13:11:54;;;;;;;39.15;4.97;;;;;;;;;;5023931;28;20143;-39
2022/12/29 13:14:39;;;;;;;39.00;4.97;;;;;;;;;;5029163;28;20070;-38
2022/12/29 13:17:24;;;;;;;49.92;5.05;;;;;;;;;;5022982;28;20033;-40
2022/12/29 13:19:56;;;;;;;35.47;4.00;;;;;;;;;;5015474;28;20112;-39
2022/12/29 13:22:22;;;;;;;19.75;2.97;;;;;;;;;;5015330;28;20068;-39
2022/12/29 13:24:59;;;;;;;23.13;4.63;;;;;;;;;;5015352;28;20030;-40
2022/12/29 13:27:37;;;;;;;58.50;5.25;;;;;;;;;;5015323;28;20053;-39
2022/12/29 13:30:04;;;;;;;26.98;3.40;;;;;;;;;;5015322;28;20118;-39
2022/12/29 13:32:46;;;;;;;29.17;3.13;;;;;;;;;;5014289;28;20041;-39
2022/12/29 13:35:16;;;;;;;37.80;3.75;;;;;;;;;;5014732;28;20030;-38
2022/12/29 13:37:54;;;;;;;40.63;3.45;;;;;;;;;;5015062;28;20026;-38
2022/12/29 13:40:26;;;;;;;27.50;3.42;;;;;;;;;;5014799;28;20057;-38
2022/12/29 13:42:57;;;;;;;27.58;3.00;;;;;;;;;;5014869;28;20029;-38
2022/12/29 13:45:25;;;;;;;29.90;3.28;;;;;;;;;;5014747;28;20030;-38
2022/12/29 13:47:57;;;;;;;31.67;3.45;;;;;;;;;;5014725;28;20057;-38
2022/12/29 13:50:26;;;;;;;23.80;3.00;;;;;;;;;;5014781;28;20148;-38
2022/12/29 13:53:12;;;;;;;32.40;3.35;;;;;;;;;;5014638;28;20030;-38
2022/12/29 13:55:51;;;;;;;32.95;2.78;;;;;;;;;;5014588;28;20022;-38
2022/12/29 13:58:36;;;;;;;27.10;2.83;;;;;;;;;;5014650;28;20496;-38
2022/12/29 14:01:18;;;;;;;20.58;2.28;;;;;;;;;;5014607;28;20030;-38
2022/12/29 14:03:48;;;;;;;26.42;2.65;;;;;;;;;;5014382;28;20022;-38
2022/12/29 14:06:18;;;;;;;33.47;3.17;;;;;;;;;;5014500;28;20042;-38
2022/12/29 14:08:45;;;;;;;25.48;3.08;;;;;;;;;;5014418;28;20025;-38
2022/12/29 14:11:14;;;;;;;26.55;3.17;;;;;;;;;;5014378;28;20512;-38
2022/12/29 14:13:42;;;;;;;29.73;3.80;;;;;;;;;;5014345;28;20026;-38
2022/12/29 14:16:11;;;;;;;28.77;3.00;;;;;;;;;;5014390;28;20489;-38
2022/12/29 14:18:47;;;;;;;23.25;2.72;;;;;;;;;;5014163;28;20041;-39
2022/12/29 14:21:14;;;;;;;30.05;3.28;;;;;;;;;;5014130;28;20038;-38
2022/12/29 14:23:43;;;;;;;29.15;3.03;;;;;;;;;;5014130;28;20412;-38
2022/12/29 14:26:30;;;;;;;38.97;3.25;;;;;;;;;;5013432;28;20511;-38
2022/12/29 14:28:57;;;;;;;25.35;3.00;;;;;;;;;;5003521;28;20543;-38
2022/12/29 14:31:30;;;;;;;38.95;3.67;;;;;;;;;;5014080;28;20037;-37
2022/12/29 14:34:12;;;;;;;33.42;3.28;;;;;;;;;;5013969;28;20105;-37
2022/12/29 14:36:43;;;;;;;24.30;3.50;;;;;;;;;;5014196;28;20488;-36
2022/12/29 14:39:28;;;;;;;31.15;3.33;;;;;;;;;;5013686;28;20034;-36
2022/12/29 14:42:06;;;;;;;26.83;3.25;;;;;;;;;;5013950;28;20485;-36
2022/12/29 14:44:33;;;;;;;19.63;2.95;;;;;;;;;;5013838;28;20037;-36
2022/12/29 14:47:09;;;;;;;24.05;3.38;;;;;;;;;;5013828;28;20028;-36
2022/12/29 14:49:43;;;;;;;24.27;2.90;;;;;;;;;;5013732;28;20029;-36
2022/12/29 14:52:13;;;;;;;25.55;3.20;;;;;;;;;;5013747;28;20049;-37
2022/12/29 14:54:45;;;;;;;22.98;2.90;;;;;;;;;;5013213;28;20050;-36
2022/12/29 14:57:33;;;;;;;19.40;2.67;;;;;;;;;;5013380;28;20442;-36
2022/12/29 15:00:20;;;;;;;24.67;3.10;;;;;;;;;;5013561;28;20030;-37
2022/12/29 15:02:55;;;;;;;21.77;2.35;;;;;;;;;;5013440;28;20092;-37
2022/12/29 15:05:34;;;;;;;22.70;2.60;;;;;;;;;;5013495;28;20026;-36
2022/12/29 15:08:01;;;;;;;18.95;2.53;;;;;;;;;;5013293;28;20041;-36
2022/12/29 15:10:34;;;;;;;14.50;2.13;;;;;;;;;;5013435;28;20040;-36
2022/12/29 15:13:04;;;;;;;15.20;2.90;;;;;;;;;;5013300;28;20084;-36
2022/12/29 15:15:36;;;;;;;13.07;2.63;;;;;;;;;;5013288;28;20045;-37
2022/12/29 15:18:22;;;;;;;14.77;2.47;;;;;;;;;;5013247;28;20037;-36
2022/12/29 15:20:51;;;;;;;23.70;3.25;;;;;;;;;;5013309;28;20084;-36
2022/12/29 15:23:18;;;;;;;11.07;2.45;;;;;;;;;;5013159;28;20049;-37